createdAt,value
2018-01-17T00:01:19.636Z,2.85
2018-01-17T00:02:41.655Z,2.81
2018-01-17T00:04:03.586Z,2.71
2018-01-17T00:05:25.900Z,2.64
2018-01-17T00:06:48.083Z,2.59
2018-01-17T00:08:10.039Z,2.45
2018-01-17T00:09:31.624Z,2.31
2018-01-17T00:10:53.455Z,2.39
2018-01-17T00:12:15.567Z,2.27
2018-01-17T00:13:37.174Z,2.17
2018-01-17T00:14:59.021Z,2.03
2018-01-17T00:16:21.151Z,2.02
2018-01-17T00:17:43.013Z,1.88
2018-01-17T00:19:05.133Z,1.79
2018-01-17T00:20:26.987Z,1.79
2018-01-17T00:21:49.202Z,1.79
2018-01-17T00:23:11.326Z,1.84
2018-01-17T00:24:33.211Z,1.8
2018-01-17T00:25:55.194Z,1.79
2018-01-17T00:27:17.061Z,1.79
2018-01-17T00:28:38.412Z,1.79
2018-01-17T00:30:00.102Z,1.76
2018-01-17T00:31:22.303Z,1.79
2018-01-17T00:32:44.081Z,1.7
2018-01-17T00:34:06.097Z,1.7
2018-01-17T00:35:28.266Z,1.81
2018-01-17T00:36:50.156Z,1.8
2018-01-17T00:38:11.484Z,2.03
2018-01-17T00:39:33.087Z,2.02
2018-01-17T00:40:55.194Z,2.17
2018-01-17T00:42:16.863Z,2.28
2018-01-17T00:43:38.443Z,2.35
2018-01-17T00:45:00.410Z,2.42
2018-01-17T00:46:22.564Z,2.35
2018-01-17T00:47:44.676Z,2.35
2018-01-17T00:49:06.779Z,2.39
2018-01-17T00:50:28.626Z,2.36
2018-01-17T00:51:50.490Z,2.39
2018-01-17T00:53:12.352Z,2.41
2018-01-17T00:54:34.583Z,2.38
2018-01-17T00:55:56.322Z,2.23
2018-01-17T00:57:18.142Z,2.18
2018-01-17T00:58:39.990Z,2.18
2018-01-17T01:00:01.857Z,2.05
2018-01-17T01:01:23.742Z,2.03
2018-01-17T01:02:45.881Z,2.02
2018-01-17T01:04:07.765Z,1.93
2018-01-17T01:05:29.765Z,1.95
2018-01-17T01:06:51.805Z,1.87
2018-01-17T01:08:13.354Z,1.81
2018-01-17T01:09:35.200Z,1.86
2018-01-17T01:10:56.787Z,1.79
2018-01-17T01:12:18.833Z,1.77
2018-01-17T01:13:40.962Z,1.84
2018-01-17T01:15:03.121Z,1.73
2018-01-17T01:16:25.155Z,1.7
2018-01-17T01:17:46.774Z,1.83
2018-01-17T01:19:08.615Z,1.79
2018-01-17T01:20:30.739Z,1.72
2018-01-17T01:21:53.010Z,1.72
2018-01-17T01:23:14.964Z,1.58
2018-01-17T01:24:36.813Z,1.59
2018-01-17T01:25:58.418Z,1.63
2018-01-17T01:27:20.384Z,1.63
2018-01-17T01:28:41.895Z,1.66
2018-01-17T01:30:04.030Z,1.59
2018-01-17T01:31:25.374Z,1.68
2018-01-17T01:32:47.229Z,1.7
2018-01-17T01:34:09.104Z,1.8
2018-01-17T01:35:31.257Z,1.81
2018-01-17T01:36:52.584Z,1.76
2018-01-17T01:38:14.451Z,1.76
2018-01-17T01:39:35.784Z,1.79
2018-01-17T01:40:57.628Z,1.83
2018-01-17T01:42:19.247Z,1.81
2018-01-17T01:43:41.343Z,1.87
2018-01-17T01:45:02.697Z,1.9
2018-01-17T01:46:24.297Z,2
2018-01-17T01:47:46.144Z,1.98
2018-01-17T01:49:08.297Z,1.95
2018-01-17T01:50:30.007Z,2.06
2018-01-17T01:51:51.653Z,2.07
2018-01-17T01:53:13.324Z,2.06
2018-01-17T01:54:35.504Z,2.18
2018-01-17T01:55:57.365Z,2.09
2018-01-17T01:57:19.708Z,2.14
2018-01-17T01:58:41.333Z,2.02
2018-01-17T02:00:03.583Z,2
2018-01-17T02:01:25.769Z,2
2018-01-17T02:02:47.477Z,1.99
2018-01-17T02:04:09.366Z,1.91
2018-01-17T02:05:31.472Z,1.91
2018-01-17T02:06:53.615Z,1.86
2018-01-17T02:08:15.235Z,1.95
2018-01-17T02:09:37.335Z,1.81
2018-01-17T02:10:59.450Z,1.91
2018-01-17T02:12:20.804Z,1.8
2018-01-17T02:13:42.398Z,1.8
2018-01-17T02:15:04.306Z,1.79
2018-01-17T02:16:26.438Z,1.77
2018-01-17T02:17:48.112Z,1.77
2018-01-17T02:19:09.704Z,1.77
2018-01-17T02:20:31.793Z,1.77
2018-01-17T02:21:53.916Z,1.8
2018-01-17T02:23:15.782Z,1.72
2018-01-17T02:24:37.896Z,1.7
2018-01-17T02:25:59.214Z,1.69
2018-01-17T02:27:21.324Z,1.68
2018-01-17T02:28:43.193Z,1.7
2018-01-17T02:30:04.797Z,1.65
2018-01-17T02:31:26.656Z,1.59
2018-01-17T02:32:48.770Z,1.73
2018-01-17T02:34:11.001Z,1.6
2018-01-17T02:35:32.437Z,1.7
2018-01-17T02:36:54.303Z,1.6
2018-01-17T02:38:16.158Z,1.68
2018-01-17T02:39:37.756Z,1.66
2018-01-17T02:40:59.666Z,1.65
2018-01-17T02:42:21.284Z,1.65
2018-01-17T02:43:43.570Z,1.62
2018-01-17T02:45:05.543Z,1.66
2018-01-17T02:46:27.400Z,1.65
2018-01-17T02:47:49.270Z,1.68
2018-01-17T02:49:10.881Z,1.63
2018-01-17T02:50:32.476Z,1.62
2018-01-17T02:51:54.112Z,1.62
2018-01-17T02:53:15.706Z,1.59
2018-01-17T02:54:38.120Z,1.59
2018-01-17T02:55:59.721Z,1.6
2018-01-17T02:57:21.844Z,1.58
2018-01-17T02:58:43.966Z,1.59
2018-01-17T03:00:05.291Z,1.59
2018-01-17T03:01:26.890Z,1.65
2018-01-17T03:02:48.752Z,1.66
2018-01-17T03:04:10.340Z,1.63
2018-01-17T03:05:32.113Z,1.63
2018-01-17T03:06:53.765Z,1.63
2018-01-17T03:08:15.404Z,1.62
2018-01-17T03:09:36.484Z,1.63
2018-01-17T03:10:58.857Z,1.58
2018-01-17T03:12:20.725Z,1.66
2018-01-17T03:13:42.709Z,1.6
2018-01-17T03:15:04.645Z,1.66
2018-01-17T03:16:26.535Z,1.62
2018-01-17T03:17:48.760Z,1.66
2018-01-17T03:19:09.836Z,1.65
2018-01-17T03:20:31.444Z,1.76
2018-01-17T03:21:53.569Z,1.72
2018-01-17T03:23:15.483Z,1.79
2018-01-17T03:24:37.423Z,1.77
2018-01-17T03:25:59.366Z,1.73
2018-01-17T03:27:21.554Z,1.95
2018-01-17T03:28:43.404Z,1.98
2018-01-17T03:30:05.313Z,1.99
2018-01-17T03:31:27.442Z,2.09
2018-01-17T03:32:49.022Z,2.14
2018-01-17T03:34:11.166Z,2.23
2018-01-17T03:35:33.277Z,2.35
2018-01-17T03:36:55.113Z,2.31
2018-01-17T03:38:16.705Z,2.45
2018-01-17T03:39:38.904Z,2.46
2018-01-17T03:41:00.809Z,2.41
2018-01-17T03:42:22.165Z,2.54
2018-01-17T03:43:44.588Z,2.46
2018-01-17T03:45:05.912Z,2.52
2018-01-17T03:46:27.504Z,2.38
2018-01-17T03:47:49.089Z,2.43
2018-01-17T03:49:11.234Z,2.35
2018-01-17T03:50:33.040Z,2.35
2018-01-17T03:51:54.887Z,2.17
2018-01-17T03:53:16.834Z,2.14
2018-01-17T03:54:39.166Z,2.09
2018-01-17T03:56:01.027Z,2.05
2018-01-17T03:57:22.676Z,2.02
2018-01-17T03:58:44.625Z,2
2018-01-17T04:00:06.371Z,1.93
2018-01-17T04:01:27.800Z,1.81
2018-01-17T04:02:49.758Z,1.81
2018-01-17T04:04:11.335Z,1.77
2018-01-17T04:05:33.245Z,1.69
2018-01-17T04:06:54.830Z,1.73
2018-01-17T04:08:15.910Z,1.77
2018-01-17T04:09:37.336Z,1.72
2018-01-17T04:10:58.668Z,1.68
2018-01-17T04:12:20.785Z,1.66
2018-01-17T04:13:42.377Z,1.63
2018-01-17T04:15:04.493Z,1.63
2018-01-17T04:16:25.571Z,1.63
2018-01-17T04:17:47.205Z,1.55
2018-01-17T04:19:08.804Z,1.66
2018-01-17T04:20:30.198Z,1.55
2018-01-17T04:21:51.522Z,1.59
2018-01-17T04:23:13.144Z,1.6
2018-01-17T04:24:34.742Z,1.54
2018-01-17T04:25:56.064Z,1.47
2018-01-17T04:27:17.930Z,1.44
2018-01-17T04:28:39.509Z,1.42
2018-01-17T04:30:00.690Z,1.45
2018-01-17T04:31:22.015Z,1.48
2018-01-17T04:32:43.342Z,1.47
2018-01-17T04:34:05.484Z,1.45
2018-01-17T04:35:27.644Z,1.52
2018-01-17T04:36:49.676Z,1.59
2018-01-17T04:38:11.585Z,1.63
2018-01-17T04:39:33.565Z,1.63
2018-01-17T04:40:55.437Z,1.66
2018-01-17T04:42:17.292Z,1.8
2018-01-17T04:43:38.888Z,1.87
2018-01-17T04:45:00.783Z,2
2018-01-17T04:46:22.632Z,2.07
2018-01-17T04:47:44.223Z,2.2
2018-01-17T04:49:05.853Z,2.27
2018-01-17T04:50:27.724Z,2.35
2018-01-17T04:51:49.319Z,2.43
2018-01-17T04:53:10.910Z,2.38
2018-01-17T04:54:32.753Z,2.42
2018-01-17T04:55:54.356Z,2.42
2018-01-17T04:57:16.463Z,2.42
2018-01-17T04:58:37.803Z,2.42
2018-01-17T04:59:59.511Z,2.52
2018-01-17T05:01:21.104Z,2.54
2018-01-17T05:02:42.995Z,2.54
2018-01-17T05:04:04.894Z,2.53
2018-01-17T05:05:26.716Z,2.36
2018-01-17T05:06:48.610Z,2.36
2018-01-17T05:08:09.672Z,2.42
2018-01-17T05:09:31.535Z,2.48
2018-01-17T05:10:53.662Z,2.41
2018-01-17T05:12:15.273Z,2.48
2018-01-17T05:13:37.371Z,2.45
2018-01-17T05:14:59.526Z,2.54
2018-01-17T05:16:21.138Z,2.6
2018-01-17T05:17:43.031Z,2.6
2018-01-17T05:19:04.882Z,2.61
2018-01-17T05:20:25.963Z,2.63
2018-01-17T05:21:47.613Z,2.63
2018-01-17T05:23:09.234Z,2.63
2018-01-17T05:24:31.182Z,2.63
2018-01-17T05:25:53.328Z,2.63
2018-01-17T05:27:14.901Z,2.69
2018-01-17T05:28:36.866Z,2.71
2018-01-17T05:29:58.733Z,2.63
2018-01-17T05:31:21.130Z,2.72
2018-01-17T05:32:42.995Z,2.71
2018-01-17T05:34:04.851Z,2.72
2018-01-17T05:35:26.237Z,2.72
2018-01-17T05:36:48.358Z,2.69
2018-01-17T05:38:09.979Z,2.69
2018-01-17T05:39:31.818Z,2.72
2018-01-17T05:40:53.689Z,2.71
2018-01-17T05:42:15.992Z,2.66
2018-01-17T05:43:37.621Z,2.72
2018-01-17T05:44:59.804Z,2.71
2018-01-17T05:46:21.674Z,2.72
2018-01-17T05:47:43.299Z,2.72
2018-01-17T05:49:05.178Z,2.67
2018-01-17T05:50:26.928Z,2.61
2018-01-17T05:51:49.053Z,2.66
2018-01-17T05:53:10.724Z,2.67
2018-01-17T05:54:32.334Z,2.63
2018-01-17T05:55:54.218Z,2.54
2018-01-17T05:57:15.591Z,2.61
2018-01-17T05:58:37.726Z,2.61
2018-01-17T05:59:59.335Z,2.63
2018-01-17T06:01:21.221Z,2.56
2018-01-17T06:02:43.293Z,2.61
2018-01-17T06:04:04.938Z,2.63
2018-01-17T06:05:26.664Z,2.64
2018-01-17T06:06:48.289Z,2.67
2018-01-17T06:08:10.503Z,2.64
2018-01-17T06:09:32.366Z,2.66
2018-01-17T06:10:54.379Z,2.56
2018-01-17T06:12:16.514Z,2.59
2018-01-17T06:13:38.685Z,2.54
2018-01-17T06:15:00.813Z,2.54
2018-01-17T06:16:22.654Z,2.53
2018-01-17T06:17:44.283Z,2.52
2018-01-17T06:19:05.873Z,2.45
2018-01-17T06:20:27.456Z,2.35
2018-01-17T06:21:49.095Z,2.38
2018-01-17T06:23:10.942Z,2.46
2018-01-17T06:24:32.568Z,2.42
2018-01-17T06:25:54.439Z,2.41
2018-01-17T06:27:16.388Z,2.41
2018-01-17T06:28:38.696Z,2.38
2018-01-17T06:30:00.564Z,2.45
2018-01-17T06:31:22.183Z,2.31
2018-01-17T06:32:43.786Z,2.41
2018-01-17T06:34:05.658Z,2.31
2018-01-17T06:35:27.637Z,2.28
2018-01-17T06:36:49.339Z,2.25
2018-01-17T06:38:11.264Z,2.18
2018-01-17T06:39:32.866Z,2.09
2018-01-17T06:40:55.101Z,2.16
2018-01-17T06:42:16.959Z,2.05
2018-01-17T06:43:38.833Z,2.18
2018-01-17T06:45:01.009Z,2.06
2018-01-17T06:46:23.119Z,2.16
2018-01-17T06:47:45.079Z,2.17
2018-01-17T06:49:06.963Z,2.2
2018-01-17T06:50:28.932Z,2.09
2018-01-17T06:51:50.803Z,2.17
2018-01-17T06:53:12.692Z,2.17
2018-01-17T06:54:34.019Z,2.17
2018-01-17T06:55:55.702Z,2.18
2018-01-17T06:57:17.872Z,2.17
2018-01-17T06:58:39.718Z,2.16
2018-01-17T07:00:01.298Z,2.21
2018-01-17T07:01:23.154Z,2.2
2018-01-17T07:02:45.365Z,2.2
2018-01-17T07:04:06.947Z,2.14
2018-01-17T07:05:29.064Z,2.18
2018-01-17T07:06:50.644Z,2.18
2018-01-17T07:08:12.594Z,2.23
2018-01-17T07:09:34.872Z,2.34
2018-01-17T07:10:56.220Z,2.36
2018-01-17T07:12:18.100Z,2.36
2018-01-17T07:13:40.223Z,2.43
2018-01-17T07:15:02.453Z,2.52
2018-01-17T07:16:24.040Z,2.42
2018-01-17T07:17:45.696Z,2.38
2018-01-17T07:19:07.024Z,2.35
2018-01-17T07:20:29.154Z,2.39
2018-01-17T07:21:51.265Z,2.45
2018-01-17T07:23:13.147Z,2.53
2018-01-17T07:24:34.726Z,2.54
2018-01-17T07:25:56.853Z,2.54
2018-01-17T07:27:18.752Z,2.53
2018-01-17T07:28:40.617Z,2.39
2018-01-17T07:30:02.747Z,2.46
2018-01-17T07:31:24.828Z,2.53
2018-01-17T07:32:46.306Z,2.48
2018-01-17T07:34:07.903Z,2.46
2018-01-17T07:35:30.024Z,2.52
2018-01-17T07:36:51.374Z,2.54
2018-01-17T07:38:12.469Z,2.42
2018-01-17T07:39:34.330Z,2.52
2018-01-17T07:40:55.941Z,2.53
2018-01-17T07:42:17.295Z,2.39
2018-01-17T07:43:39.362Z,2.42
2018-01-17T07:45:01.049Z,2.48
2018-01-17T07:46:22.944Z,2.39
2018-01-17T07:47:44.320Z,2.38
2018-01-17T07:49:05.936Z,2.34
2018-01-17T07:50:27.663Z,2.41
2018-01-17T07:51:49.336Z,2.45
2018-01-17T07:53:11.071Z,2.38
2018-01-17T07:54:33.195Z,2.41
2018-01-17T07:55:55.066Z,2.45
2018-01-17T07:57:17.266Z,2.48
2018-01-17T07:58:39.367Z,2.54
2018-01-17T08:00:01.485Z,2.59
2018-01-17T08:01:23.353Z,2.61
2018-01-17T08:02:45.336Z,2.67
2018-01-17T08:04:06.939Z,2.75
2018-01-17T08:05:29.125Z,2.74
2018-01-17T08:06:51.245Z,2.72
2018-01-17T08:08:12.893Z,2.85
2018-01-17T08:09:35.009Z,2.82
2018-01-17T08:10:56.860Z,2.82
2018-01-17T08:12:19.161Z,2.82
2018-01-17T08:13:41.265Z,2.85
2018-01-17T08:15:03.125Z,2.81
2018-01-17T08:16:24.984Z,2.92
2018-01-17T08:17:47.113Z,2.79
2018-01-17T08:19:09.227Z,2.75
2018-01-17T08:20:31.148Z,2.9
2018-01-17T08:21:53.269Z,2.87
2018-01-17T08:23:15.195Z,2.79
2018-01-17T08:24:37.054Z,2.79
2018-01-17T08:25:59.185Z,2.82
2018-01-17T08:27:20.681Z,2.79
2018-01-17T08:28:42.892Z,2.81
2018-01-17T08:30:04.757Z,2.84
2018-01-17T08:31:26.975Z,2.92
2018-01-17T08:32:49.081Z,2.93
2018-01-17T08:34:10.682Z,3.1
2018-01-17T08:35:32.545Z,3.02
2018-01-17T08:36:54.724Z,3.11
2018-01-17T08:38:16.612Z,3.23
2018-01-17T08:39:38.757Z,3.21
2018-01-17T08:41:00.368Z,3.4
2018-01-17T08:42:22.076Z,3.35
2018-01-17T08:43:43.273Z,3.39
2018-01-17T08:45:04.872Z,3.48
2018-01-17T08:46:26.490Z,3.42
2018-01-17T08:47:48.185Z,3.42
2018-01-17T08:49:10.066Z,3.54
2018-01-17T08:50:31.915Z,3.51
2018-01-17T08:51:53.542Z,3.58
2018-01-17T08:53:15.425Z,3.39
2018-01-17T08:54:37.015Z,3.45
2018-01-17T08:55:58.873Z,3.47
2018-01-17T08:57:20.468Z,3.5
2018-01-17T08:58:42.643Z,3.4
2018-01-17T09:00:04.552Z,3.42
2018-01-17T09:01:26.274Z,3.54
2018-01-17T09:02:48.105Z,3.4
2018-01-17T09:04:09.974Z,3.5
2018-01-17T09:05:31.815Z,3.45
2018-01-17T09:06:53.662Z,3.5
2018-01-17T09:08:15.762Z,3.47
2018-01-17T09:09:37.950Z,3.45
2018-01-17T09:10:59.805Z,3.55
2018-01-17T09:12:21.688Z,3.5
2018-01-17T09:13:42.802Z,3.45
2018-01-17T09:15:04.465Z,3.48
2018-01-17T09:16:26.152Z,3.58
2018-01-17T09:17:47.757Z,3.52
2018-01-17T09:19:09.603Z,3.66
2018-01-17T09:20:31.488Z,3.65
2018-01-17T09:21:53.082Z,3.62
2018-01-17T09:23:14.925Z,3.7
2018-01-17T09:24:37.158Z,3.68
2018-01-17T09:25:59.328Z,3.57
2018-01-17T09:27:21.186Z,3.61
2018-01-17T09:28:43.301Z,3.55
2018-01-17T09:30:04.975Z,3.65
2018-01-17T09:31:26.851Z,3.69
2018-01-17T09:32:48.552Z,3.66
2018-01-17T09:34:10.147Z,3.73
2018-01-17T09:35:32.261Z,3.86
2018-01-17T09:36:54.395Z,3.86
2018-01-17T09:38:16.026Z,3.91
2018-01-17T09:39:37.361Z,3.86
2018-01-17T09:40:58.948Z,3.76
2018-01-17T09:42:20.798Z,3.78
2018-01-17T09:43:42.972Z,3.72
2018-01-17T09:45:05.037Z,3.72
2018-01-17T09:46:27.183Z,3.7
2018-01-17T09:47:49.599Z,3.7
2018-01-17T09:49:11.489Z,3.66
2018-01-17T09:50:33.370Z,3.69
2018-01-17T09:51:55.233Z,3.62
2018-01-17T09:53:16.322Z,3.73
2018-01-17T09:54:37.953Z,3.65
2018-01-17T09:55:59.824Z,3.76
2018-01-17T09:57:21.672Z,3.79
2018-01-17T09:58:43.566Z,3.8
2018-01-17T10:00:05.705Z,3.93
2018-01-17T10:01:27.657Z,3.93
2018-01-17T10:02:49.495Z,3.98
2018-01-17T10:04:10.826Z,3.98
2018-01-17T10:05:32.491Z,4.08
2018-01-17T10:06:54.364Z,4.22
2018-01-17T10:08:16.231Z,4.24
2018-01-17T10:09:38.112Z,4.22
2018-01-17T10:10:59.719Z,4.23
2018-01-17T10:12:21.604Z,4.41
2018-01-17T10:13:43.572Z,4.37
2018-01-17T10:15:05.791Z,4.4
2018-01-17T10:16:27.452Z,4.32
2018-01-17T10:17:49.178Z,4.32
2018-01-17T10:19:11.058Z,4.33
2018-01-17T10:20:33.373Z,4.23
2018-01-17T10:21:55.289Z,4.23
2018-01-17T10:23:17.223Z,4.15
2018-01-17T10:24:39.094Z,4.09
2018-01-17T10:26:01.232Z,4.05
2018-01-17T10:27:22.862Z,4.06
2018-01-17T10:28:44.722Z,4.08
2018-01-17T10:30:06.331Z,4
2018-01-17T10:31:27.922Z,3.88
2018-01-17T10:32:49.522Z,3.94
2018-01-17T10:34:11.482Z,3.93
2018-01-17T10:35:33.406Z,3.96
2018-01-17T10:36:55.249Z,4.14
2018-01-17T10:38:17.105Z,4.29
2018-01-17T10:39:38.996Z,4.36
2018-01-17T10:41:00.918Z,4.45
2018-01-17T10:42:22.782Z,4.58
2018-01-17T10:43:44.773Z,4.66
2018-01-17T10:45:06.888Z,4.77
2018-01-17T10:46:28.755Z,4.86
2018-01-17T10:47:50.868Z,4.94
2018-01-17T10:49:12.999Z,5.09
2018-01-17T10:50:34.765Z,5.3
2018-01-17T10:51:56.635Z,5.45
2018-01-17T10:53:18.482Z,5.74
2018-01-17T10:54:40.441Z,5.97
2018-01-17T10:56:02.332Z,6.06
2018-01-17T10:57:23.915Z,6.21
2018-01-17T10:58:45.509Z,6.33
2018-01-17T11:00:07.381Z,6.55
2018-01-17T11:01:29.130Z,6.7
2018-01-17T11:02:51.074Z,6.74
2018-01-17T11:04:13.212Z,6.69
2018-01-17T11:05:34.825Z,6.51
2018-01-17T11:06:56.675Z,6.31
2018-01-17T11:08:18.693Z,6.31
2018-01-17T11:09:40.369Z,6.3
2018-01-17T11:11:01.964Z,6.48
2018-01-17T11:12:23.806Z,6.55
2018-01-17T11:13:45.439Z,6.76
2018-01-17T11:15:06.777Z,6.71
2018-01-17T11:16:28.901Z,6.74
2018-01-17T11:17:50.827Z,6.71
2018-01-17T11:19:12.972Z,6.87
2018-01-17T11:20:34.851Z,7.06
2018-01-17T11:21:56.458Z,7.02
2018-01-17T11:23:18.453Z,6.87
2018-01-17T11:24:40.391Z,6.79
2018-01-17T11:26:02.284Z,6.88
2018-01-17T11:27:24.249Z,7.02
2018-01-17T11:28:46.224Z,7.15
2018-01-17T11:30:08.354Z,7.17
2018-01-17T11:31:29.946Z,7.24
2018-01-17T11:32:52.128Z,7.15
2018-01-17T11:34:14.074Z,6.99
2018-01-17T11:35:35.720Z,6.84
2018-01-17T11:36:57.089Z,6.71
2018-01-17T11:38:19.636Z,6.73
2018-01-17T11:39:41.288Z,6.66
2018-01-17T11:41:03.537Z,6.74
2018-01-17T11:42:25.407Z,6.77
2018-01-17T11:43:46.745Z,6.69
2018-01-17T11:45:08.486Z,6.56
2018-01-17T11:46:30.466Z,6.48
2018-01-17T11:47:52.608Z,6.36
2018-01-17T11:49:14.469Z,6.21
2018-01-17T11:50:36.181Z,6
2018-01-17T11:51:58.035Z,5.89
2018-01-17T11:53:19.733Z,5.76
2018-01-17T11:54:41.862Z,5.51
2018-01-17T11:56:03.781Z,5.43
2018-01-17T11:57:25.940Z,5.27
2018-01-17T11:58:47.537Z,5.13
2018-01-17T12:00:09.662Z,5.06
2018-01-17T12:01:31.564Z,4.88
2018-01-17T12:02:53.828Z,5
2018-01-17T12:04:15.448Z,4.91
2018-01-17T12:05:37.325Z,5.12
2018-01-17T12:06:59.064Z,5.21
2018-01-17T12:08:20.933Z,5.28
2018-01-17T12:09:42.272Z,5.28
2018-01-17T12:11:03.981Z,5.3
2018-01-17T12:12:25.849Z,5.43
2018-01-17T12:13:47.718Z,5.53
2018-01-17T12:15:09.617Z,5.67
2018-01-17T12:16:31.214Z,5.83
2018-01-17T12:17:52.822Z,5.99
2018-01-17T12:19:14.955Z,6.09
2018-01-17T12:20:37.127Z,5.97
2018-01-17T12:21:58.442Z,6.09
2018-01-17T12:23:20.305Z,6.03
2018-01-17T12:24:42.170Z,5.97
2018-01-17T12:26:04.352Z,6.01
2018-01-17T12:27:26.189Z,5.83
2018-01-17T12:28:48.505Z,5.65
2018-01-17T12:30:10.368Z,5.65
2018-01-17T12:31:32.621Z,5.68
2018-01-17T12:32:54.264Z,5.64
2018-01-17T12:34:16.213Z,5.63
2018-01-17T12:35:37.881Z,5.57
2018-01-17T12:36:59.764Z,5.64
2018-01-17T12:38:21.617Z,5.68
2018-01-17T12:39:43.341Z,5.68
2018-01-17T12:41:05.235Z,5.67
2018-01-17T12:42:27.214Z,5.76
2018-01-17T12:43:49.088Z,5.86
2018-01-17T12:45:10.695Z,5.68
2018-01-17T12:46:32.366Z,5.78
2018-01-17T12:47:53.975Z,5.75
2018-01-17T12:49:15.573Z,5.79
2018-01-17T12:50:37.409Z,5.68
2018-01-17T12:51:59.303Z,5.74
2018-01-17T12:53:21.159Z,5.9
2018-01-17T12:54:43.091Z,5.91
2018-01-17T12:56:04.489Z,5.83
2018-01-17T12:57:26.082Z,6.01
2018-01-17T12:58:47.957Z,6.09
2018-01-17T13:00:09.894Z,6.19
2018-01-17T13:01:32.083Z,6.25
2018-01-17T13:02:53.962Z,6.4
2018-01-17T13:04:16.283Z,6.27
2018-01-17T13:05:38.144Z,6.09
2018-01-17T13:06:59.780Z,5.99
2018-01-17T13:08:21.965Z,5.97
2018-01-17T13:09:43.890Z,5.68
2018-01-17T13:11:05.819Z,5.43
2018-01-17T13:12:27.834Z,5.12
2018-01-17T13:13:50.194Z,4.88
2018-01-17T13:15:12.194Z,4.62
2018-01-17T13:16:34.067Z,4.48
2018-01-17T13:17:56.209Z,4.34
2018-01-17T13:19:18.073Z,4.2
2018-01-17T13:20:40.265Z,4.22
2018-01-17T13:22:02.335Z,4.34
2018-01-17T13:23:24.196Z,4.41
2018-01-17T13:24:46.329Z,4.54
2018-01-17T13:26:07.923Z,4.59
2018-01-17T13:27:30.171Z,4.65
2018-01-17T13:28:51.515Z,4.66
2018-01-17T13:30:13.735Z,4.69
2018-01-17T13:31:35.372Z,4.59
2018-01-17T13:32:57.004Z,4.55
2018-01-17T13:34:19.286Z,4.65
2018-01-17T13:35:41.186Z,4.7
2018-01-17T13:37:02.817Z,4.69
2018-01-17T13:38:24.416Z,4.65
2018-01-17T13:39:46.018Z,4.73
2018-01-17T13:41:08.216Z,4.66
2018-01-17T13:42:29.876Z,4.62
2018-01-17T13:43:51.865Z,4.67
2018-01-17T13:45:13.998Z,4.65
2018-01-17T13:46:35.887Z,4.69
2018-01-17T13:47:57.754Z,4.67
2018-01-17T13:49:19.361Z,4.51
2018-01-17T13:50:41.240Z,4.55
2018-01-17T13:52:03.473Z,4.44
2018-01-17T13:53:25.602Z,4.4
2018-01-17T13:54:47.274Z,4.34
2018-01-17T13:56:09.149Z,4.34
2018-01-17T13:57:31.036Z,4.24
2018-01-17T13:58:52.694Z,4.2
2018-01-17T14:00:15.146Z,4.23
2018-01-17T14:01:37.028Z,4.23
2018-01-17T14:02:58.382Z,4.32
2018-01-17T14:04:19.815Z,4.27
2018-01-17T14:05:41.981Z,4.36
2018-01-17T14:07:03.613Z,4.4
2018-01-17T14:08:25.834Z,4.4
2018-01-17T14:09:47.844Z,4.52
2018-01-17T14:11:09.704Z,4.48
2018-01-17T14:12:31.617Z,4.48
2018-01-17T14:13:53.855Z,4.5
2018-01-17T14:15:15.720Z,4.51
2018-01-17T14:16:37.604Z,4.51
2018-01-17T14:17:59.737Z,4.6
2018-01-17T14:19:21.362Z,4.47
2018-01-17T14:20:43.501Z,4.47
2018-01-17T14:22:05.674Z,4.45
2018-01-17T14:23:27.820Z,4.5
2018-01-17T14:24:49.958Z,4.5
2018-01-17T14:26:11.963Z,4.42
2018-01-17T14:27:33.868Z,4.3
2018-01-17T14:28:56.015Z,4.26
2018-01-17T14:30:18.164Z,4.23
2018-01-17T14:31:40.151Z,4.22
2018-01-17T14:33:02.143Z,4.23
2018-01-17T14:34:24.302Z,4.24
2018-01-17T14:35:45.659Z,4.2
2018-01-17T14:37:07.381Z,4.2
2018-01-17T14:38:29.521Z,4.22
2018-01-17T14:39:51.465Z,4.18
2018-01-17T14:41:13.595Z,4.24
2018-01-17T14:42:35.799Z,4.27
2018-01-17T14:43:57.764Z,4.24
2018-01-17T14:45:19.770Z,4.15
2018-01-17T14:46:41.958Z,4.18
2018-01-17T14:48:04.105Z,4.15
2018-01-17T14:49:26.276Z,4.05
2018-01-17T14:50:48.177Z,4.09
2018-01-17T14:52:09.848Z,3.94
2018-01-17T14:53:32.004Z,3.96
2018-01-17T14:54:53.965Z,3.93
2018-01-17T14:56:15.833Z,3.98
2018-01-17T14:57:38.097Z,3.93
2018-01-17T14:59:00.337Z,3.86
2018-01-17T15:00:22.495Z,3.88
2018-01-17T15:01:44.102Z,3.86
2018-01-17T15:03:05.709Z,3.84
2018-01-17T15:04:27.606Z,3.79
2018-01-17T15:05:49.561Z,3.83
2018-01-17T15:07:11.530Z,3.79
2018-01-17T15:08:33.394Z,3.8
2018-01-17T15:09:55.610Z,3.86
2018-01-17T15:11:17.784Z,3.83
2018-01-17T15:12:39.755Z,3.73
2018-01-17T15:14:01.920Z,3.76
2018-01-17T15:15:23.858Z,3.78
2018-01-17T15:16:45.985Z,3.8
2018-01-17T15:18:07.876Z,3.69
2018-01-17T15:19:29.856Z,3.58
2018-01-17T15:20:51.716Z,3.47
2018-01-17T15:22:13.598Z,3.4
2018-01-17T15:23:35.720Z,3.32
2018-01-17T15:24:57.360Z,3.17
2018-01-17T15:26:19.513Z,3.15
2018-01-17T15:27:41.645Z,3.2
2018-01-17T15:29:03.244Z,3.2
2018-01-17T15:30:25.391Z,3.31
2018-01-17T15:31:47.008Z,3.36
2018-01-17T15:33:09.005Z,3.42
2018-01-17T15:34:30.900Z,3.57
2018-01-17T15:35:52.803Z,3.54
2018-01-17T15:37:14.943Z,3.72
2018-01-17T15:38:37.293Z,3.62
2018-01-17T15:39:59.441Z,3.62
2018-01-17T15:41:21.608Z,3.61
2018-01-17T15:42:43.752Z,3.58
2018-01-17T15:44:05.877Z,3.57
2018-01-17T15:45:27.757Z,3.55
2018-01-17T15:46:49.926Z,3.48
2018-01-17T15:48:12.057Z,3.57
2018-01-17T15:49:34.234Z,3.6
2018-01-17T15:50:56.209Z,3.57
2018-01-17T15:52:17.845Z,3.58
2018-01-17T15:53:40.005Z,3.57
2018-01-17T15:55:02.413Z,3.5
2018-01-17T15:56:24.755Z,3.61
2018-01-17T15:57:46.885Z,3.68
2018-01-17T15:59:09.068Z,3.62
2018-01-17T16:00:31.094Z,3.68
2018-01-17T16:01:52.673Z,3.66
2018-01-17T16:03:14.795Z,3.72
2018-01-17T16:04:36.684Z,3.79
2018-01-17T16:05:58.874Z,3.83
2018-01-17T16:07:20.739Z,3.87
2018-01-17T16:08:42.926Z,3.86
2018-01-17T16:10:04.835Z,3.83
2018-01-17T16:11:26.992Z,3.84
2018-01-17T16:12:49.168Z,3.87
2018-01-17T16:14:11.085Z,3.8
2018-01-17T16:15:32.986Z,3.86
2018-01-17T16:16:55.171Z,3.87
2018-01-17T16:18:17.398Z,3.83
2018-01-17T16:19:39.286Z,3.88
2018-01-17T16:21:01.258Z,3.9
2018-01-17T16:22:23.170Z,3.86
2018-01-17T16:23:45.375Z,3.9
2018-01-17T16:25:06.747Z,3.86
2018-01-17T16:26:28.997Z,3.84
2018-01-17T16:27:51.201Z,3.84
2018-01-17T16:29:13.135Z,3.86
2018-01-17T16:30:35.265Z,3.87
2018-01-17T16:31:57.424Z,3.79
2018-01-17T16:33:19.274Z,3.78
2018-01-17T16:34:41.425Z,3.78
2018-01-17T16:36:03.756Z,3.62
2018-01-17T16:37:25.740Z,3.54
2018-01-17T16:38:48.050Z,3.51
2018-01-17T16:40:09.981Z,3.42
2018-01-17T16:41:32.091Z,3.42
2018-01-17T16:42:53.997Z,3.43
2018-01-17T16:44:16.251Z,3.43
2018-01-17T16:45:37.925Z,3.33
2018-01-17T16:46:59.824Z,3.29
2018-01-17T16:48:21.538Z,3.29
2018-01-17T16:49:43.481Z,3.36
2018-01-17T16:51:05.593Z,3.28
2018-01-17T16:52:27.664Z,3.26
2018-01-17T16:53:49.813Z,3.2
2018-01-17T16:55:12.076Z,3.2
2018-01-17T16:56:34.442Z,3.15
2018-01-17T16:57:56.590Z,3.17
2018-01-17T16:59:18.827Z,3.18
2018-01-17T17:00:40.768Z,3.2
2018-01-17T17:02:02.652Z,3.2
2018-01-17T17:03:24.867Z,3.03
2018-01-17T17:04:47.092Z,3.1
2018-01-17T17:06:08.721Z,3.13
2018-01-17T17:07:30.869Z,3.13
2018-01-17T17:08:52.806Z,3.06
2018-01-17T17:10:15.044Z,2.96
2018-01-17T17:11:37.297Z,2.96
2018-01-17T17:12:59.483Z,2.99
2018-01-17T17:14:21.624Z,3.08
2018-01-17T17:15:43.725Z,3.11
2018-01-17T17:17:05.386Z,3.13
2018-01-17T17:18:27.534Z,3.08
2018-01-17T17:19:49.468Z,3.2
2018-01-17T17:21:11.630Z,3.15
2018-01-17T17:22:33.626Z,3.14
2018-01-17T17:23:55.338Z,3.17
2018-01-17T17:25:17.226Z,3.18
2018-01-17T17:26:39.116Z,3.23
2018-01-17T17:28:00.940Z,3.15
2018-01-17T17:29:22.873Z,3.2
2018-01-17T17:30:44.770Z,3.18
2018-01-17T17:32:06.748Z,3.13
2018-01-17T17:33:29.049Z,3.03
2018-01-17T17:34:51.211Z,3.1
2018-01-17T17:36:12.994Z,3.05
2018-01-17T17:37:35.140Z,3.02
2018-01-17T17:38:56.766Z,2.89
2018-01-17T17:40:18.931Z,2.92
2018-01-17T17:41:40.839Z,2.82
2018-01-17T17:43:02.858Z,2.72
2018-01-17T17:44:25.498Z,2.66
2018-01-17T17:45:47.737Z,2.61
2018-01-17T17:47:10.174Z,2.6
2018-01-17T17:48:32.324Z,2.64
2018-01-17T17:49:54.223Z,2.63
2018-01-17T17:51:16.536Z,2.75
2018-01-17T17:52:38.717Z,2.72
2018-01-17T17:54:00.859Z,2.89
2018-01-17T17:55:22.605Z,2.79
2018-01-17T17:56:44.867Z,2.87
2018-01-17T17:58:07.104Z,2.95
2018-01-17T17:59:28.993Z,2.89
2018-01-17T18:00:51.174Z,2.97
2018-01-17T18:02:13.092Z,2.97
2018-01-17T18:03:35.225Z,2.95
2018-01-17T18:04:56.990Z,2.96
2018-01-17T18:06:19.196Z,2.82
2018-01-17T18:07:41.246Z,2.79
2018-01-17T18:09:02.942Z,2.74
2018-01-17T18:10:25.068Z,2.66
2018-01-17T18:11:46.982Z,2.71
2018-01-17T18:13:08.920Z,2.69
2018-01-17T18:14:31.168Z,2.69